Time,TemperatureF,DewpointF,PressureIn,WindDirection,WindDirectionDegrees,WindSpeedMPH,WindSpeedGustMPH,Humidity,HourlyPrecipIn,Conditions,Clouds,dailyrainin,SoftwareType,DateUTC
2013-03-15 00:04:00,55.1,37.3,30.03,NW,315,0.0,0.2,51,0.00,,,0.00,WUHU216HW,2013-03-15 05:04:00,
2013-03-15 00:12:00,54.4,37.1,30.03,NNW,338,0.2,0.4,52,0.00,,,0.00,WUHU216HW,2013-03-15 05:12:00,
2013-03-15 00:23:00,54.2,37.8,30.03,NNW,338,0.4,0.9,54,0.00,,,0.00,WUHU216HW,2013-03-15 05:23:00,
2013-03-15 00:31:00,54.2,37.8,30.02,North,0,1.3,1.3,54,0.00,,,0.00,WUHU216HW,2013-03-15 05:31:00,
2013-03-15 00:39:00,53.8,37.5,30.03,NNW,338,0.2,1.3,54,0.00,,,0.00,WUHU216HW,2013-03-15 05:39:00,
2013-03-15 00:50:00,52.9,37.6,30.02,NNW,338,0.0,0.4,56,0.00,,,0.00,WUHU216HW,2013-03-15 05:50:00,
2013-03-15 00:58:00,52.9,37.6,30.02,North,0,1.6,1.6,56,0.00,,,0.00,WUHU216HW,2013-03-15 05:58:00,
2013-03-15 01:06:00,53.3,37.4,30.02,North,0,2.5,2.5,55,0.00,,,0.00,WUHU216HW,2013-03-15 06:06:00,
2013-03-15 01:17:00,53.1,37.7,30.02,North,0,3.6,4.0,56,0.00,,,0.00,WUHU216HW,2013-03-15 06:17:00,
2013-03-15 01:25:00,52.4,37.5,30.01,North,0,3.4,3.6,57,0.00,,,0.00,WUHU216HW,2013-03-15 06:25:00,
2013-03-15 01:33:00,51.8,37.4,30.01,North,0,2.5,3.4,58,0.00,,,0.00,WUHU216HW,2013-03-15 06:33:00,
2013-03-15 01:44:00,51.5,38.4,30.01,NNW,338,5.6,5.6,61,0.00,,,0.00,WUHU216HW,2013-03-15 06:44:00,
2013-03-15 01:52:00,51.1,38.5,30.01,North,0,4.5,5.8,62,0.00,,,0.00,WUHU216HW,2013-03-15 06:52:00,
2013-03-15 02:00:00,50.2,38.4,30.00,North,0,3.4,4.7,64,0.00,,,0.00,WUHU216HW,2013-03-15 07:00:00,
2013-03-15 02:11:00,49.5,38.2,30.00,NNE,23,4.7,4.7,65,0.00,,,0.00,WUHU216HW,2013-03-15 07:11:00,
2013-03-15 02:19:00,49.1,38.3,30.00,North,0,3.6,4.7,66,0.00,,,0.00,WUHU216HW,2013-03-15 07:19:00,
2013-03-15 02:27:00,49.3,38.4,29.99,North,0,4.0,4.0,66,0.00,,,0.00,WUHU216HW,2013-03-15 07:27:00,
2013-03-15 02:38:00,49.3,38.8,29.99,NNE,23,6.3,6.3,67,0.00,,,0.00,WUHU216HW,2013-03-15 07:38:00,
2013-03-15 02:46:00,49.3,38.4,29.99,NE,45,3.4,6.3,66,0.00,,,0.00,WUHU216HW,2013-03-15 07:46:00,
2013-03-15 02:54:00,48.6,37.7,29.98,NNE,23,0.4,4.3,66,0.00,,,0.00,WUHU216HW,2013-03-15 07:54:00,
2013-03-15 03:05:00,47.9,37.8,29.97,NNE,23,2.5,2.5,68,0.00,,,0.00,WUHU216HW,2013-03-15 08:05:00,
2013-03-15 03:13:00,48.4,38.4,29.97,NE,45,0.9,2.5,68,0.00,,,0.00,WUHU216HW,2013-03-15 08:13:00,
2013-03-15 03:21:00,47.9,37.5,29.96,NE,45,0.0,0.9,67,0.00,,,0.00,WUHU216HW,2013-03-15 08:21:00,
2013-03-15 03:32:00,47.2,36.7,29.96,NE,45,0.0,0.0,67,0.00,,,0.00,WUHU216HW,2013-03-15 08:32:00,
2013-03-15 03:40:00,46.6,36.3,29.96,NE,45,0.0,0.0,67,0.00,,,0.00,WUHU216HW,2013-03-15 08:40:00,
2013-03-15 03:48:00,45.9,35.9,29.95,ESE,113,0.0,0.0,68,0.00,,,0.00,WUHU216HW,2013-03-15 08:48:00,
2013-03-15 03:58:00,46.1,37.6,29.95,SW,225,0.0,0.0,72,0.00,,,0.00,WUHU216HW,2013-03-15 08:58:00,
2013-03-15 04:07:00,46.3,36.3,29.95,SW,225,0.0,0.0,68,0.00,,,0.00,WUHU216HW,2013-03-15 09:07:00,
2013-03-15 04:15:00,45.2,36.7,29.94,South,180,0.0,0.0,72,0.00,,,0.00,WUHU216HW,2013-03-15 09:15:00,
2013-03-15 04:26:00,44.8,36.4,29.93,South,180,0.0,0.0,72,0.00,,,0.00,WUHU216HW,2013-03-15 09:26:00,
2013-03-15 04:34:00,43.9,35.5,29.93,South,180,0.0,0.0,72,0.00,,,0.00,WUHU216HW,2013-03-15 09:34:00,
2013-03-15 04:42:00,45.0,37.2,29.93,SSW,203,0.2,0.2,74,0.00,,,0.00,WUHU216HW,2013-03-15 09:42:00,
2013-03-15 04:52:00,46.3,38.1,29.93,SSW,203,1.1,1.1,73,0.00,,,0.00,WUHU216HW,2013-03-15 09:52:00,
2013-03-15 05:01:00,46.4,38.0,29.93,SSW,203,2.2,2.2,72,0.00,,,0.00,WUHU216HW,2013-03-15 10:01:00,
2013-03-15 05:09:00,46.4,38.0,29.92,SSW,203,2.0,2.5,72,0.00,,,0.00,WUHU216HW,2013-03-15 10:09:00,
2013-03-15 05:20:00,46.4,38.0,29.92,SW,225,0.4,2.0,72,0.00,,,0.00,WUHU216HW,2013-03-15 10:20:00,
2013-03-15 05:28:00,46.4,38.0,29.92,SSW,203,0.9,1.1,72,0.00,,,0.00,WUHU216HW,2013-03-15 10:28:00,
2013-03-15 05:36:00,47.2,38.6,29.92,WSW,248,0.4,1.8,72,0.00,,,0.00,WUHU216HW,2013-03-15 10:36:00,
2013-03-15 05:46:00,47.5,38.6,29.92,SSW,203,1.1,2.0,71,0.00,,,0.00,WUHU216HW,2013-03-15 10:46:00,
2013-03-15 05:54:00,47.9,38.5,29.92,SSW,203,2.0,2.0,70,0.00,,,0.00,WUHU216HW,2013-03-15 10:54:00,
2013-03-15 06:03:00,48.1,38.4,29.92,SW,225,0.7,2.0,69,0.00,,,0.00,WUHU216HW,2013-03-15 11:03:00,
2013-03-15 06:14:00,47.5,38.3,29.92,WSW,248,0.4,0.4,70,0.00,,,0.00,WUHU216HW,2013-03-15 11:14:00,
2013-03-15 06:22:00,47.3,38.1,29.92,SW,225,0.4,0.4,70,0.00,,,0.00,WUHU216HW,2013-03-15 11:22:00,
2013-03-15 06:30:00,47.9,38.2,29.92,SSW,203,2.5,2.5,69,0.00,,,0.00,WUHU216HW,2013-03-15 11:30:00,
2013-03-15 06:40:00,48.2,38.2,29.91,SSW,203,1.6,2.5,68,0.00,,,0.00,WUHU216HW,2013-03-15 11:40:00,
2013-03-15 06:48:00,48.4,38.4,29.91,SSW,203,4.7,5.4,68,0.00,,,0.00,WUHU216HW,2013-03-15 11:48:00,
2013-03-15 06:57:00,48.6,38.5,29.91,SSW,203,3.4,4.7,68,0.00,,,0.00,WUHU216HW,2013-03-15 11:57:00,
2013-03-15 07:08:00,48.6,38.1,29.92,SSW,203,4.5,5.6,67,0.00,,,0.00,WUHU216HW,2013-03-15 12:08:00,
2013-03-15 07:16:00,47.9,37.8,29.92,SW,225,4.0,5.8,68,0.00,,,0.00,WUHU216HW,2013-03-15 12:16:00,
2013-03-15 07:24:00,47.9,37.8,29.91,SSW,203,5.4,5.8,68,0.00,,,0.00,WUHU216HW,2013-03-15 12:24:00,
2013-03-15 07:35:00,48.1,37.6,29.90,SW,225,3.6,4.5,67,0.00,,,0.00,WUHU216HW,2013-03-15 12:35:00,
2013-03-15 07:43:00,48.6,37.7,29.89,SSW,203,4.3,4.7,66,0.00,,,0.00,WUHU216HW,2013-03-15 12:43:00,
2013-03-15 07:51:00,49.0,37.7,29.89,SSW,203,4.0,4.5,65,0.00,,,0.00,WUHU216HW,2013-03-15 12:51:00,
2013-03-15 08:02:00,49.5,37.8,29.88,SSW,203,6.9,6.9,64,0.00,,,0.00,WUHU216HW,2013-03-15 13:02:00,
2013-03-15 08:10:00,50.8,39.0,29.88,South,180,4.3,6.9,64,0.00,,,0.00,WUHU216HW,2013-03-15 13:10:00,
2013-03-15 08:18:00,51.3,38.7,29.88,South,180,5.1,6.0,62,0.00,,,0.00,WUHU216HW,2013-03-15 13:18:00,
2013-03-15 08:29:00,51.8,38.8,29.87,SSW,203,5.4,6.5,61,0.00,,,0.00,WUHU216HW,2013-03-15 13:29:00,
2013-03-15 08:37:00,52.2,39.2,29.87,South,180,4.0,5.4,61,0.00,,,0.00,WUHU216HW,2013-03-15 13:37:00,
2013-03-15 08:45:00,52.6,39.5,29.87,South,180,4.7,4.7,61,0.00,,,0.00,WUHU216HW,2013-03-15 13:45:00,
2013-03-15 08:55:00,52.9,39.8,29.86,South,180,5.4,5.4,61,0.00,,,0.00,WUHU216HW,2013-03-15 13:55:00,
2013-03-15 09:04:00,54.4,40.3,29.86,SSW,203,7.6,7.6,59,0.00,,,0.00,WUHU216HW,2013-03-15 14:04:00,
2013-03-15 09:12:00,54.7,40.1,29.86,South,180,6.3,7.6,58,0.00,,,0.00,WUHU216HW,2013-03-15 14:12:00,
2013-03-15 09:23:00,54.7,40.1,29.87,SSW,203,6.5,6.9,58,0.00,,,0.00,WUHU216HW,2013-03-15 14:23:00,
2013-03-15 09:31:00,54.4,40.8,29.86,South,180,8.5,8.5,60,0.00,,,0.00,WUHU216HW,2013-03-15 14:31:00,
2013-03-15 09:39:00,54.4,41.6,29.86,SSW,203,8.3,8.5,62,0.00,,,0.00,WUHU216HW,2013-03-15 14:39:00,
2013-03-15 09:49:00,55.1,42.7,29.86,SSW,203,6.9,7.8,63,0.00,,,0.00,WUHU216HW,2013-03-15 14:49:00,
2013-03-15 09:57:00,55.6,42.8,29.85,SSW,203,7.4,7.4,62,0.00,,,0.00,WUHU216HW,2013-03-15 14:57:00,
2013-03-15 10:06:00,56.9,43.6,29.85,SW,225,6.3,8.7,61,0.00,,,0.00,WUHU216HW,2013-03-15 15:06:00,
2013-03-15 10:17:00,58.5,43.7,29.85,SSW,203,9.8,10.5,58,0.00,,,0.00,WUHU216HW,2013-03-15 15:17:00,
2013-03-15 10:25:00,59.4,44.1,29.85,SSW,203,7.4,9.8,57,0.00,,,0.00,WUHU216HW,2013-03-15 15:25:00,
2013-03-15 10:33:00,59.9,44.2,29.84,South,180,10.1,10.1,56,0.00,,,0.00,WUHU216HW,2013-03-15 15:33:00,
2013-03-15 10:43:00,60.8,44.6,29.84,SSW,203,10.3,10.3,55,0.00,,,0.00,WUHU216HW,2013-03-15 15:43:00,
2013-03-15 10:52:00,60.8,45.0,29.83,South,180,9.2,10.3,56,0.00,,,0.00,WUHU216HW,2013-03-15 15:52:00,
2013-03-15 11:00:00,61.6,45.2,29.83,SSE,158,6.5,9.2,55,0.00,,,0.00,WUHU216HW,2013-03-15 16:00:00,
2013-03-15 11:11:00,63.0,45.6,29.83,SW,225,6.9,13.2,53,0.00,,,0.00,WUHU216HW,2013-03-15 16:11:00,
2013-03-15 11:19:00,63.4,45.4,29.82,SSW,203,4.7,8.1,52,0.00,,,0.00,WUHU216HW,2013-03-15 16:19:00,
2013-03-15 11:27:00,63.9,46.4,29.82,South,180,9.8,9.8,53,0.00,,,0.00,WUHU216HW,2013-03-15 16:27:00,
2013-03-15 11:38:00,65.2,46.5,29.81,SSW,203,9.4,9.8,51,0.00,,,0.00,WUHU216HW,2013-03-15 16:38:00,
2013-03-15 11:46:00,65.3,46.7,29.81,WSW,248,8.5,9.4,51,0.00,,,0.00,WUHU216HW,2013-03-15 16:46:00,
2013-03-15 11:54:00,66.2,46.5,29.81,SSW,203,6.9,8.9,49,0.00,,,0.00,WUHU216HW,2013-03-15 16:54:00,
2013-03-15 12:05:00,66.8,47.1,29.80,South,180,8.3,9.2,49,0.00,,,0.00,WUHU216HW,2013-03-15 17:05:00,
2013-03-15 12:13:00,67.3,48.6,29.79,South,180,6.9,9.2,51,0.00,,,0.00,WUHU216HW,2013-03-15 17:13:00,
2013-03-15 12:21:00,68.6,47.5,29.79,SW,225,6.0,9.2,47,0.00,,,0.00,WUHU216HW,2013-03-15 17:21:00,
2013-03-15 12:32:00,69.7,48.4,29.79,South,180,10.7,10.7,47,0.00,,,0.00,WUHU216HW,2013-03-15 17:32:00,
2013-03-15 12:40:00,70.4,48.5,29.78,SSW,203,11.4,11.4,46,0.00,,,0.00,WUHU216HW,2013-03-15 17:40:00,
2013-03-15 12:48:00,70.9,48.4,29.78,WSW,248,5.4,11.4,45,0.00,,,0.00,WUHU216HW,2013-03-15 17:48:00,
2013-03-15 12:58:00,71.5,49.5,29.78,SSW,203,6.9,8.5,46,0.00,,,0.00,WUHU216HW,2013-03-15 17:58:00,
2013-03-15 13:07:00,72.0,49.4,29.77,South,180,9.8,9.8,45,0.00,,,0.00,WUHU216HW,2013-03-15 18:07:00,
2013-03-15 13:15:00,73.1,48.6,29.77,SW,225,7.8,9.8,42,0.00,,,0.00,WUHU216HW,2013-03-15 18:15:00,
2013-03-15 13:26:00,73.3,49.3,29.76,South,180,12.1,12.1,43,0.00,,,0.00,WUHU216HW,2013-03-15 18:26:00,
2013-03-15 13:34:00,74.5,49.3,29.75,South,180,8.9,12.1,41,0.00,,,0.00,WUHU216HW,2013-03-15 18:34:00,
2013-03-15 13:42:00,74.7,50.0,29.75,South,180,9.8,9.8,42,0.00,,,0.00,WUHU216HW,2013-03-15 18:42:00,
2013-03-15 13:52:00,74.5,48.7,29.74,South,180,7.4,8.5,40,0.00,,,0.00,WUHU216HW,2013-03-15 18:52:00,
2013-03-15 14:01:00,74.3,47.8,29.74,SSE,158,10.1,10.1,39,0.00,,,0.00,WUHU216HW,2013-03-15 19:01:00,
2013-03-15 14:09:00,76.1,48.6,29.73,SW,225,9.6,10.1,38,0.00,,,0.00,WUHU216HW,2013-03-15 19:09:00,
2013-03-15 14:20:00,75.8,49.1,29.73,SSW,203,8.7,8.7,39,0.00,,,0.00,WUHU216HW,2013-03-15 19:20:00,
2013-03-15 14:28:00,74.9,49.0,29.73,SW,225,7.8,8.7,40,0.00,,,0.00,WUHU216HW,2013-03-15 19:28:00,
2013-03-15 14:36:00,75.8,49.8,29.72,SSW,203,6.3,9.8,40,0.00,,,0.00,WUHU216HW,2013-03-15 19:36:00,
2013-03-15 14:46:00,77.2,50.3,29.71,SSW,203,6.9,6.9,39,0.00,,,0.00,WUHU216HW,2013-03-15 19:46:00,
2013-03-15 14:54:00,77.0,49.4,29.71,SSE,158,6.9,8.5,38,0.00,,,0.00,WUHU216HW,2013-03-15 19:54:00,
2013-03-15 15:03:00,77.8,49.3,29.71,SW,225,6.9,6.9,37,0.00,,,0.00,WUHU216HW,2013-03-15 20:03:00,
2013-03-15 15:14:00,78.7,49.3,29.70,SSW,203,11.4,11.4,36,0.00,,,0.00,WUHU216HW,2013-03-15 20:14:00,
2013-03-15 15:22:00,78.5,49.1,29.70,SSW,203,9.6,11.4,36,0.00,,,0.00,WUHU216HW,2013-03-15 20:22:00,
2013-03-15 15:30:00,79.9,48.9,29.69,SW,225,8.5,13.4,34,0.00,,,0.00,WUHU216HW,2013-03-15 20:30:00,
2013-03-15 15:40:00,80.6,48.0,29.69,SSW,203,13.6,13.6,32,0.00,,,0.00,WUHU216HW,2013-03-15 20:40:00,
2013-03-15 15:48:00,80.1,48.2,29.68,SSW,203,10.5,13.6,33,0.00,,,0.00,WUHU216HW,2013-03-15 20:48:00,
2013-03-15 15:57:00,80.3,47.7,29.68,SW,225,4.7,10.5,32,0.00,,,0.00,WUHU216HW,2013-03-15 20:57:00,
2013-03-15 16:08:00,79.7,48.7,29.68,SSW,203,11.0,11.9,34,0.00,,,0.00,WUHU216HW,2013-03-15 21:08:00,
2013-03-15 16:16:00,80.5,48.6,29.67,South,180,10.5,11.0,33,0.00,,,0.00,WUHU216HW,2013-03-15 21:16:00,
2013-03-15 16:24:00,80.1,48.2,29.68,South,180,12.1,12.1,33,0.00,,,0.00,WUHU216HW,2013-03-15 21:24:00,
2013-03-15 16:35:00,77.9,49.4,29.67,South,180,11.2,12.1,37,0.00,,,0.00,WUHU216HW,2013-03-15 21:35:00,
2013-03-15 16:43:00,77.6,49.9,29.67,SSW,203,8.9,11.2,38,0.00,,,0.00,WUHU216HW,2013-03-15 21:43:00,
2013-03-15 16:51:00,77.6,49.1,29.67,SSW,203,6.0,8.9,37,0.00,,,0.00,WUHU216HW,2013-03-15 21:51:00,
2013-03-15 17:02:00,77.9,51.0,29.67,SSW,203,6.3,7.2,39,0.00,,,0.00,WUHU216HW,2013-03-15 22:02:00,
2013-03-15 17:10:00,78.8,50.2,29.66,South,180,12.8,12.8,37,0.00,,,0.00,WUHU216HW,2013-03-15 22:10:00,
2013-03-15 17:18:00,79.0,51.2,29.66,South,180,10.1,12.8,38,0.00,,,0.00,WUHU216HW,2013-03-15 22:18:00,
2013-03-15 17:29:00,77.8,50.9,29.66,South,180,8.5,11.0,39,0.00,,,0.00,WUHU216HW,2013-03-15 22:29:00,
2013-03-15 17:37:00,76.9,50.8,29.66,SSW,203,11.2,11.2,40,0.00,,,0.00,WUHU216HW,2013-03-15 22:37:00,
2013-03-15 17:45:00,76.1,50.8,29.66,SSW,203,10.1,13.4,41,0.00,,,0.00,WUHU216HW,2013-03-15 22:45:00,
2013-03-15 17:55:00,76.0,51.2,29.65,SSW,203,10.1,10.5,42,0.00,,,0.00,WUHU216HW,2013-03-15 22:55:00,
2013-03-15 18:04:00,75.4,50.7,29.65,SSW,203,15.9,15.9,42,0.00,,,0.00,WUHU216HW,2013-03-15 23:04:00,
2013-03-15 18:12:00,75.6,50.9,29.65,South,180,13.4,15.9,42,0.00,,,0.00,WUHU216HW,2013-03-15 23:12:00,
2013-03-15 18:23:00,74.5,49.9,29.65,SW,225,8.5,8.9,42,0.00,,,0.00,WUHU216HW,2013-03-15 23:23:00,
2013-03-15 18:31:00,73.6,49.7,29.65,SSW,203,4.9,8.5,43,0.00,,,0.00,WUHU216HW,2013-03-15 23:31:00,
2013-03-15 18:39:00,72.7,48.9,29.65,South,180,8.5,9.8,43,0.00,,,0.00,WUHU216HW,2013-03-15 23:39:00,
2013-03-15 18:49:00,72.0,48.8,29.65,SSW,203,7.6,7.8,44,0.00,,,0.00,WUHU216HW,2013-03-15 23:49:00,
2013-03-15 18:57:00,71.8,48.6,29.64,South,180,7.2,7.6,44,0.00,,,0.00,WUHU216HW,2013-03-15 23:57:00,
2013-03-15 19:06:00,71.1,48.6,29.64,SSW,203,8.7,8.7,45,0.00,,,0.00,WUHU216HW,2013-03-16 00:06:00,
2013-03-15 19:17:00,70.2,49.0,29.64,South,180,11.0,11.0,47,0.00,,,0.00,WUHU216HW,2013-03-16 00:17:00,
2013-03-15 19:25:00,69.5,48.9,29.64,SSW,203,6.9,11.0,48,0.00,,,0.00,WUHU216HW,2013-03-16 00:25:00,
2013-03-15 19:33:00,68.9,49.0,29.64,South,180,8.5,8.5,49,0.00,,,0.00,WUHU216HW,2013-03-16 00:33:00,
2013-03-15 19:44:00,68.0,49.2,29.64,South,180,7.6,8.5,51,0.00,,,0.00,WUHU216HW,2013-03-16 00:44:00,
2013-03-15 19:52:00,67.9,49.2,29.64,South,180,6.9,7.6,51,0.00,,,0.00,WUHU216HW,2013-03-16 00:52:00,
2013-03-15 20:00:00,67.9,49.2,29.64,SSW,203,6.7,6.9,51,0.00,,,0.00,WUHU216HW,2013-03-16 01:00:00,
2013-03-15 20:11:00,67.7,49.0,29.63,SSW,203,6.9,8.3,51,0.00,,,0.00,WUHU216HW,2013-03-16 01:11:00,
2013-03-15 20:19:00,67.5,48.8,29.64,SW,225,6.5,9.6,51,0.00,,,0.00,WUHU216HW,2013-03-16 01:19:00,
2013-03-15 20:27:00,67.5,48.8,29.64,SSW,203,9.2,9.4,51,0.00,,,0.00,WUHU216HW,2013-03-16 01:27:00,
2013-03-15 20:38:00,67.0,48.3,29.63,SSW,203,6.5,7.6,51,0.00,,,0.00,WUHU216HW,2013-03-16 01:38:00,
2013-03-15 20:46:00,66.8,48.2,29.63,SSW,203,7.6,7.6,51,0.00,,,0.00,WUHU216HW,2013-03-16 01:46:00,
2013-03-15 20:54:00,66.6,48.0,29.63,SW,225,7.8,10.5,51,0.00,,,0.00,WUHU216HW,2013-03-16 01:54:00,
2013-03-15 21:05:00,66.2,48.2,29.63,SSW,203,5.8,9.6,52,0.00,,,0.00,WUHU216HW,2013-03-16 02:05:00,
2013-03-15 21:13:00,66.1,48.0,29.63,SW,225,7.6,8.9,52,0.00,,,0.00,WUHU216HW,2013-03-16 02:13:00,
2013-03-15 21:21:00,65.7,47.6,29.63,SSW,203,7.6,11.0,52,0.00,,,0.00,WUHU216HW,2013-03-16 02:21:00,
2013-03-15 21:32:00,65.7,47.6,29.63,SSW,203,6.0,7.6,52,0.00,,,0.00,WUHU216HW,2013-03-16 02:32:00,
2013-03-15 21:40:00,65.3,47.7,29.63,WSW,248,8.5,8.9,53,0.00,,,0.00,WUHU216HW,2013-03-16 02:40:00,
2013-03-15 21:48:00,65.2,47.5,29.63,SSW,203,6.9,8.9,53,0.00,,,0.00,WUHU216HW,2013-03-16 02:48:00,
2013-03-15 21:59:00,64.8,47.7,29.63,SSW,203,5.4,9.6,54,0.00,,,0.00,WUHU216HW,2013-03-16 02:59:00,
2013-03-15 22:07:00,64.4,47.4,29.64,SSW,203,5.4,6.3,54,0.00,,,0.00,WUHU216HW,2013-03-16 03:07:00,
2013-03-15 22:15:00,64.1,47.4,29.63,SW,225,7.2,7.2,55,0.00,,,0.00,WUHU216HW,2013-03-16 03:15:00,
2013-03-15 22:26:00,63.7,47.6,29.63,SW,225,5.4,5.4,56,0.00,,,0.00,WUHU216HW,2013-03-16 03:26:00,
2013-03-15 22:34:00,63.9,47.4,29.64,SSW,203,4.7,6.0,55,0.00,,,0.00,WUHU216HW,2013-03-16 03:34:00,
2013-03-15 22:42:00,63.7,47.6,29.64,SSW,203,5.1,6.7,56,0.00,,,0.00,WUHU216HW,2013-03-16 03:42:00,
2013-03-15 22:53:00,63.4,47.4,29.64,WSW,248,6.3,7.8,56,0.00,,,0.00,WUHU216HW,2013-03-16 03:53:00,
2013-03-15 23:01:00,63.0,47.4,29.64,SSW,203,6.3,6.3,57,0.00,,,0.00,WUHU216HW,2013-03-16 04:01:00,
2013-03-15 23:09:00,62.8,47.4,29.65,WSW,248,4.0,6.3,57,0.00,,,0.00,WUHU216HW,2013-03-16 04:09:00,
2013-03-15 23:20:00,62.6,47.2,29.66,WNW,293,0.4,5.4,57,0.00,,,0.00,WUHU216HW,2013-03-16 04:20:00,
2013-03-15 23:28:00,61.4,47.0,29.65,NW,315,1.1,1.8,59,0.00,,,0.00,WUHU216HW,2013-03-16 04:28:00,
2013-03-15 23:36:00,60.8,47.4,29.65,WSW,248,3.4,3.4,61,0.00,,,0.00,WUHU216HW,2013-03-16 04:36:00,
2013-03-15 23:47:00,60.5,47.1,29.65,SSW,203,2.7,2.7,61,0.00,,,0.00,WUHU216HW,2013-03-16 04:47:00,
2013-03-15 23:55:00,60.3,46.4,29.64,WSW,248,0.0,2.7,60,0.00,,,0.00,WUHU216HW,2013-03-16 04:55:00,